createdAt,value
2022-11-28T00:02:47.670Z,0
2022-11-28T00:09:07.453Z,0
2022-11-28T00:15:30.382Z,0
2022-11-28T00:21:50.436Z,0
2022-11-28T00:28:13.355Z,0
2022-11-28T00:34:33.345Z,0
2022-11-28T00:40:56.512Z,0
2022-11-28T00:47:16.372Z,0
2022-11-28T00:53:39.350Z,0
2022-11-28T00:59:59.435Z,0
2022-11-28T01:06:22.314Z,0
2022-11-28T01:12:42.375Z,0
2022-11-28T01:19:05.473Z,0
2022-11-28T01:25:25.397Z,0
2022-11-28T01:31:48.388Z,0
2022-11-28T01:38:08.537Z,0
2022-11-28T01:44:31.357Z,0
2022-11-28T01:50:51.368Z,0
2022-11-28T01:57:14.469Z,0
2022-11-28T02:03:34.353Z,0
2022-11-28T02:09:57.329Z,0
2022-11-28T02:16:17.585Z,0
2022-11-28T02:22:40.410Z,0
2022-11-28T02:29:00.334Z,0
2022-11-28T02:35:23.503Z,0
2022-11-28T02:41:43.359Z,0
2022-11-28T02:48:06.415Z,0
2022-11-28T02:54:26.435Z,0
2022-11-28T03:00:49.404Z,0
2022-11-28T03:07:09.343Z,0
2022-11-28T03:13:32.478Z,0
2022-11-28T03:19:52.319Z,0
2022-11-28T03:26:15.433Z,0
2022-11-28T03:32:35.547Z,0
2022-11-28T03:38:58.326Z,0
2022-11-28T03:45:18.337Z,0
2022-11-28T03:51:41.485Z,0
2022-11-28T03:58:01.330Z,0
2022-11-28T04:04:24.426Z,0
2022-11-28T04:10:44.447Z,0
2022-11-28T04:17:07.374Z,0
2022-11-28T04:23:27.352Z,0
2022-11-28T04:39:56.380Z,0
2022-11-28T04:46:16.440Z,0
2022-11-28T04:52:39.530Z,0
2022-11-28T04:58:59.455Z,0
2022-11-28T05:05:22.363Z,0
2022-11-28T05:11:42.340Z,0
2022-11-28T05:18:05.437Z,0
2022-11-28T05:24:29.301Z,0
2022-11-28T05:30:48.422Z,0
2022-11-28T05:37:08.446Z,0
2022-11-28T05:43:31.399Z,0
2022-11-28T05:49:51.359Z,0
2022-11-28T05:56:14.557Z,0
2022-11-28T06:02:34.430Z,0
2022-11-28T06:08:57.351Z,0
2022-11-28T06:15:17.524Z,0
2022-11-28T06:21:40.366Z,0
2022-11-28T06:28:00.451Z,0
2022-11-28T06:34:23.482Z,0
2022-11-28T06:40:43.343Z,0
2022-11-28T06:47:06.444Z,1
2022-11-28T06:53:31.293Z,2
2022-11-28T06:59:49.430Z,6
2022-11-28T07:06:09.344Z,11
2022-11-28T07:12:32.535Z,18
2022-11-28T07:18:52.447Z,31
2022-11-28T07:25:15.494Z,45
2022-11-28T07:31:35.557Z,87
2022-11-28T07:37:58.413Z,113
2022-11-28T07:44:18.385Z,127
2022-11-28T07:50:41.416Z,186
2022-11-28T07:57:12.179Z,297
2022-11-28T08:03:24.445Z,354
2022-11-28T08:09:44.718Z,404
2022-11-28T08:16:07.430Z,410
2022-11-28T08:22:27.364Z,344
2022-11-28T08:28:50.374Z,443
2022-11-28T08:35:10.380Z,513
2022-11-28T08:41:33.355Z,641
2022-11-28T08:47:53.364Z,676
2022-11-28T08:54:16.405Z,627
2022-11-28T09:00:36.365Z,637
2022-11-28T09:06:59.357Z,901
2022-11-28T09:13:19.358Z,1184
2022-11-28T09:19:42.488Z,1034
2022-11-28T09:26:02.424Z,784
2022-11-28T09:32:25.319Z,731
2022-11-28T09:38:45.358Z,678
2022-11-28T09:54:55.308Z,817
2022-11-28T10:01:15.350Z,907
2022-11-28T10:07:38.391Z,906
2022-11-28T10:14:12.247Z,803
2022-11-28T10:20:21.350Z,819
2022-11-28T10:26:41.393Z,683
2022-11-28T10:33:04.431Z,643
2022-11-28T10:39:24.371Z,666
2022-11-28T10:45:47.466Z,617
2022-11-28T10:52:07.411Z,611
2022-11-28T10:58:30.376Z,584
2022-11-28T11:04:50.491Z,673
2022-11-28T11:11:13.604Z,959
2022-11-28T11:17:36.073Z,1250
2022-11-28T11:23:56.457Z,1044
2022-11-28T11:30:16.498Z,860
2022-11-28T11:36:39.344Z,969
2022-11-28T11:42:59.385Z,1060
2022-11-28T11:49:22.415Z,1075
2022-11-28T11:55:42.364Z,1178
2022-11-28T12:02:05.431Z,1126
2022-11-28T12:08:25.371Z,814
2022-11-28T12:14:48.417Z,854
2022-11-28T12:21:08.361Z,939
2022-11-28T12:27:31.443Z,1071
2022-11-28T12:33:51.373Z,1125
2022-11-28T12:40:14.389Z,958
2022-11-28T12:46:34.601Z,809
2022-11-28T12:52:57.380Z,752
2022-11-28T12:59:17.379Z,611
2022-11-28T13:05:40.627Z,787
2022-11-28T13:12:00.403Z,917
2022-11-28T13:18:23.385Z,951
2022-11-28T13:24:43.469Z,843
2022-11-28T13:31:06.432Z,657
2022-11-28T13:43:49.373Z,575
2022-11-28T13:50:09.441Z,512
2022-11-28T13:56:32.362Z,457
2022-11-28T14:02:52.487Z,429
2022-11-28T14:09:15.414Z,398
2022-11-28T14:15:35.345Z,348
2022-11-28T14:21:58.467Z,339
2022-11-28T14:28:18.501Z,324
2022-11-28T14:34:41.701Z,420
2022-11-28T14:58:06.271Z,351
2022-11-28T15:04:26.405Z,236
2022-11-28T15:10:49.366Z,200
2022-11-28T15:17:09.379Z,124
2022-11-28T15:23:32.326Z,68
2022-11-28T15:29:52.425Z,47
2022-11-28T15:36:15.366Z,22
2022-11-28T15:42:35.352Z,9
2022-11-28T15:48:58.380Z,5
2022-11-28T15:55:18.409Z,2
2022-11-28T16:01:41.463Z,0
2022-11-28T16:08:01.374Z,0
2022-11-28T16:14:24.779Z,0
2022-11-28T16:20:44.398Z,0
2022-11-28T16:27:07.371Z,0
2022-11-28T16:33:27.431Z,0
2022-11-28T16:39:50.390Z,0
2022-11-28T16:46:10.394Z,0
2022-11-28T16:52:33.384Z,0
2022-11-28T16:58:53.398Z,0
2022-11-28T17:05:16.365Z,0
2022-11-28T17:11:36.370Z,0
2022-11-28T17:17:59.437Z,0
2022-11-28T17:24:19.349Z,0
2022-11-28T17:30:42.347Z,0
2022-11-28T17:37:02.402Z,0
2022-11-28T17:43:25.358Z,0
2022-11-28T17:49:46.510Z,0
2022-11-28T17:56:08.392Z,0
2022-11-28T18:02:28.369Z,0
2022-11-28T18:08:51.435Z,0
2022-11-28T18:15:11.326Z,0
2022-11-28T18:21:34.363Z,0
2022-11-28T18:27:54.418Z,0
2022-11-28T18:34:17.384Z,0
2022-11-28T18:40:37.346Z,0
2022-11-28T18:47:00.422Z,0
2022-11-28T18:53:20.356Z,0
2022-11-28T18:59:47.929Z,0
2022-11-28T19:06:03.404Z,0
2022-11-28T19:12:26.387Z,0
2022-11-28T19:18:46.389Z,0
2022-11-28T19:25:09.429Z,0
2022-11-28T19:31:29.424Z,0
2022-11-28T19:37:52.380Z,0
2022-11-28T19:44:12.485Z,0
2022-11-28T19:50:35.378Z,0
2022-11-28T20:14:16.360Z,0
2022-11-28T20:20:36.332Z,0
2022-11-28T20:26:59.396Z,0
2022-11-28T20:33:19.456Z,0
2022-11-28T20:39:42.781Z,0
2022-11-28T20:46:02.422Z,0
2022-11-28T20:52:25.436Z,0
2022-11-28T20:58:45.306Z,0
2022-11-28T21:05:09.336Z,0
2022-11-28T21:11:55.515Z,0
2022-11-28T21:17:52.497Z,0
2022-11-28T21:24:12.433Z,0
2022-11-28T21:30:35.369Z,0
2022-11-28T21:36:55.369Z,0
2022-11-28T21:43:18.321Z,0
2022-11-28T21:49:38.376Z,0
2022-11-28T21:56:01.380Z,0
2022-11-28T22:02:23.898Z,0
2022-11-28T22:08:44.452Z,0
2022-11-28T22:15:04.451Z,0
2022-11-28T22:21:56.913Z,0
2022-11-28T22:27:47.649Z,0
2022-11-28T22:34:10.607Z,0
2022-11-28T22:40:30.410Z,0
2022-11-28T22:46:53.387Z,0
2022-11-28T22:53:13.401Z,0
2022-11-28T22:59:36.423Z,0
2022-11-28T23:22:33.330Z,0
2022-11-28T23:28:53.364Z,0
2022-11-28T23:35:16.345Z,0
2022-11-28T23:41:36.441Z,0
2022-11-28T23:47:59.358Z,0
2022-11-28T23:54:19.407Z,0
